sensor_id;sensor_type;location;lat;lon;timestamp;temperature;humidity
54614;DHT22;40514;52.758;6.360;2022-09-03T00:00:57;18.90;57.40
54614;DHT22;40514;52.758;6.360;2022-09-03T00:03:27;18.80;57.60
54614;DHT22;40514;52.758;6.360;2022-09-03T00:08:39;18.70;57.70
54614;DHT22;40514;52.758;6.360;2022-09-03T00:13:48;18.70;57.40
54614;DHT22;40514;52.758;6.360;2022-09-03T00:16:16;18.70;57.50
54614;DHT22;40514;52.758;6.360;2022-09-03T00:18:47;18.70;57.70
54614;DHT22;40514;52.758;6.360;2022-09-03T00:21:17;18.60;57.30
54614;DHT22;40514;52.758;6.360;2022-09-03T00:23:45;18.60;57.20
54614;DHT22;40514;52.758;6.360;2022-09-03T00:28:53;18.50;57.80
54614;DHT22;40514;52.758;6.360;2022-09-03T00:31:23;18.50;57.30
54614;DHT22;40514;52.758;6.360;2022-09-03T00:33:59;18.40;57.90
54614;DHT22;40514;52.758;6.360;2022-09-03T00:36:37;18.40;58.30
54614;DHT22;40514;52.758;6.360;2022-09-03T00:39:14;18.40;57.60
54614;DHT22;40514;52.758;6.360;2022-09-03T00:41:44;18.30;58.60
54614;DHT22;40514;52.758;6.360;2022-09-03T00:47:01;18.20;58.20
54614;DHT22;40514;52.758;6.360;2022-09-03T00:52:10;18.10;58.50
54614;DHT22;40514;52.758;6.360;2022-09-03T00:54:42;18.10;59.00
54614;DHT22;40514;52.758;6.360;2022-09-03T00:59:43;18.00;58.50
54614;DHT22;40514;52.758;6.360;2022-09-03T01:02:18;18.00;58.60
54614;DHT22;40514;52.758;6.360;2022-09-03T01:07:44;17.90;58.60
54614;DHT22;40514;52.758;6.360;2022-09-03T01:12:43;17.80;58.60
54614;DHT22;40514;52.758;6.360;2022-09-03T01:15:20;18.20;58.90
54614;DHT22;40514;52.758;6.360;2022-09-03T01:17:55;17.80;59.00
54614;DHT22;40514;52.758;6.360;2022-09-03T01:20:26;17.80;59.00
54614;DHT22;40514;52.758;6.360;2022-09-03T01:25:46;17.70;58.30
54614;DHT22;40514;52.758;6.360;2022-09-03T01:28:22;17.70;59.50
54614;DHT22;40514;52.758;6.360;2022-09-03T01:30:56;17.70;59.50
54614;DHT22;40514;52.758;6.360;2022-09-03T01:33:39;17.60;59.50
54614;DHT22;40514;52.758;6.360;2022-09-03T01:44:07;17.50;59.30
54614;DHT22;40514;52.758;6.360;2022-09-03T01:46:39;17.50;59.70
54614;DHT22;40514;52.758;6.360;2022-09-03T01:51:34;17.40;59.70
54614;DHT22;40514;52.758;6.360;2022-09-03T02:01:46;17.20;60.10
54614;DHT22;40514;52.758;6.360;2022-09-03T02:04:18;17.20;60.40
54614;DHT22;40514;52.758;6.360;2022-09-03T02:06:45;17.20;60.10
54614;DHT22;40514;52.758;6.360;2022-09-03T02:09:12;17.20;61.20
54614;DHT22;40514;52.758;6.360;2022-09-03T02:11:38;17.20;60.80
54614;DHT22;40514;52.758;6.360;2022-09-03T02:14:04;17.10;59.70
54614;DHT22;40514;52.758;6.360;2022-09-03T02:16:30;17.20;60.50
54614;DHT22;40514;52.758;6.360;2022-09-03T02:18:58;17.10;60.90
54614;DHT22;40514;52.758;6.360;2022-09-03T02:21:26;17.20;60.60
54614;DHT22;40514;52.758;6.360;2022-09-03T02:23:52;17.20;60.80
54614;DHT22;40514;52.758;6.360;2022-09-03T02:26:20;17.20;60.60
54614;DHT22;40514;52.758;6.360;2022-09-03T02:28:46;17.20;60.90
54614;DHT22;40514;52.758;6.360;2022-09-03T02:31:12;17.20;60.70
54614;DHT22;40514;52.758;6.360;2022-09-03T02:33:39;17.30;60.80
54614;DHT22;40514;52.758;6.360;2022-09-03T02:36:06;17.20;60.70
54614;DHT22;40514;52.758;6.360;2022-09-03T02:38:32;17.20;60.60
54614;DHT22;40514;52.758;6.360;2022-09-03T02:40:57;17.30;60.20
54614;DHT22;40514;52.758;6.360;2022-09-03T02:45:49;17.20;61.30
54614;DHT22;40514;52.758;6.360;2022-09-03T02:48:16;17.30;60.40
54614;DHT22;40514;52.758;6.360;2022-09-03T02:50:43;17.40;61.20
54614;DHT22;40514;52.758;6.360;2022-09-03T02:53:08;17.30;60.70
54614;DHT22;40514;52.758;6.360;2022-09-03T02:55:34;17.20;61.20
54614;DHT22;40514;52.758;6.360;2022-09-03T02:57:59;17.30;60.40
54614;DHT22;40514;52.758;6.360;2022-09-03T03:00:25;17.30;60.90
54614;DHT22;40514;52.758;6.360;2022-09-03T03:02:55;17.30;61.10
54614;DHT22;40514;52.758;6.360;2022-09-03T03:05:23;17.20;60.80
54614;DHT22;40514;52.758;6.360;2022-09-03T03:07:50;17.30;61.10
54614;DHT22;40514;52.758;6.360;2022-09-03T03:10:16;17.20;60.90
54614;DHT22;40514;52.758;6.360;2022-09-03T03:12:41;17.20;61.10
54614;DHT22;40514;52.758;6.360;2022-09-03T03:15:07;17.20;61.40
54614;DHT22;40514;52.758;6.360;2022-09-03T03:17:32;17.20;61.30
54614;DHT22;40514;52.758;6.360;2022-09-03T03:19:58;17.10;61.70
54614;DHT22;40514;52.758;6.360;2022-09-03T03:22:23;17.20;61.50
54614;DHT22;40514;52.758;6.360;2022-09-03T03:24:49;17.10;60.60
54614;DHT22;40514;52.758;6.360;2022-09-03T03:27:15;17.10;61.50
54614;DHT22;40514;52.758;6.360;2022-09-03T03:29:40;17.10;62.00
54614;DHT22;40514;52.758;6.360;2022-09-03T03:32:06;17.00;61.60
54614;DHT22;40514;52.758;6.360;2022-09-03T03:34:31;17.30;61.90
54614;DHT22;40514;52.758;6.360;2022-09-03T03:36:56;17.00;61.50
54614;DHT22;40514;52.758;6.360;2022-09-03T03:39:23;17.00;62.10
54614;DHT22;40514;52.758;6.360;2022-09-03T03:41:48;16.90;61.40
54614;DHT22;40514;52.758;6.360;2022-09-03T03:44:14;16.90;61.90
54614;DHT22;40514;52.758;6.360;2022-09-03T03:46:41;16.90;61.90
54614;DHT22;40514;52.758;6.360;2022-09-03T03:49:07;16.90;62.10
54614;DHT22;40514;52.758;6.360;2022-09-03T03:51:33;16.90;62.10
54614;DHT22;40514;52.758;6.360;2022-09-03T03:53:59;16.90;62.00
54614;DHT22;40514;52.758;6.360;2022-09-03T03:56:25;16.80;62.40
54614;DHT22;40514;52.758;6.360;2022-09-03T03:58:50;16.90;62.50
54614;DHT22;40514;52.758;6.360;2022-09-03T04:01:18;16.80;62.80
54614;DHT22;40514;52.758;6.360;2022-09-03T04:03:43;16.80;62.30
54614;DHT22;40514;52.758;6.360;2022-09-03T04:06:10;16.80;62.30
54614;DHT22;40514;52.758;6.360;2022-09-03T04:08:36;16.70;62.70
54614;DHT22;40514;52.758;6.360;2022-09-03T04:11:02;16.70;62.40
54614;DHT22;40514;52.758;6.360;2022-09-03T04:13:31;16.70;62.50
54614;DHT22;40514;52.758;6.360;2022-09-03T04:16:04;16.70;62.60
54614;DHT22;40514;52.758;6.360;2022-09-03T04:18:30;16.60;62.80
54614;DHT22;40514;52.758;6.360;2022-09-03T04:21:09;16.60;62.90
54614;DHT22;40514;52.758;6.360;2022-09-03T04:23:36;16.50;62.50
54614;DHT22;40514;52.758;6.360;2022-09-03T04:26:03;16.50;62.70
54614;DHT22;40514;52.758;6.360;2022-09-03T04:28:28;16.50;63.10
54614;DHT22;40514;52.758;6.360;2022-09-03T04:30:54;16.40;63.80
54614;DHT22;40514;52.758;6.360;2022-09-03T04:33:24;16.40;63.50
54614;DHT22;40514;52.758;6.360;2022-09-03T04:35:50;16.40;63.80
54614;DHT22;40514;52.758;6.360;2022-09-03T04:38:15;16.30;64.10
54614;DHT22;40514;52.758;6.360;2022-09-03T04:40:41;16.20;64.60
54614;DHT22;40514;52.758;6.360;2022-09-03T04:43:06;16.30;63.50
54614;DHT22;40514;52.758;6.360;2022-09-03T04:45:32;16.30;64.10
54614;DHT22;40514;52.758;6.360;2022-09-03T04:47:58;16.20;63.90
54614;DHT22;40514;52.758;6.360;2022-09-03T04:50:24;16.20;64.50
54614;DHT22;40514;52.758;6.360;2022-09-03T04:52:52;16.10;64.20
54614;DHT22;40514;52.758;6.360;2022-09-03T04:55:20;16.10;64.80
54614;DHT22;40514;52.758;6.360;2022-09-03T04:57:46;16.10;64.60
54614;DHT22;40514;52.758;6.360;2022-09-03T05:00:11;16.00;64.40
54614;DHT22;40514;52.758;6.360;2022-09-03T05:02:37;16.00;65.30
54614;DHT22;40514;52.758;6.360;2022-09-03T05:05:03;16.00;65.40
54614;DHT22;40514;52.758;6.360;2022-09-03T05:07:29;15.90;65.70
54614;DHT22;40514;52.758;6.360;2022-09-03T05:10:09;15.90;65.10
54614;DHT22;40514;52.758;6.360;2022-09-03T05:12:37;15.90;66.50
54614;DHT22;40514;52.758;6.360;2022-09-03T05:15:03;15.80;66.30
54614;DHT22;40514;52.758;6.360;2022-09-03T05:17:29;15.80;66.20
54614;DHT22;40514;52.758;6.360;2022-09-03T05:19:55;15.80;65.60
54614;DHT22;40514;52.758;6.360;2022-09-03T05:22:20;15.80;66.00
54614;DHT22;40514;52.758;6.360;2022-09-03T05:24:46;15.80;65.30
54614;DHT22;40514;52.758;6.360;2022-09-03T05:27:13;15.90;66.20
54614;DHT22;40514;52.758;6.360;2022-09-03T05:29:41;15.90;66.00
54614;DHT22;40514;52.758;6.360;2022-09-03T05:32:07;15.80;66.30
54614;DHT22;40514;52.758;6.360;2022-09-03T05:34:32;15.80;66.20
54614;DHT22;40514;52.758;6.360;2022-09-03T05:36:58;15.80;66.50
54614;DHT22;40514;52.758;6.360;2022-09-03T05:39:23;15.80;66.90
54614;DHT22;40514;52.758;6.360;2022-09-03T05:41:48;15.80;67.00
54614;DHT22;40514;52.758;6.360;2022-09-03T05:44:16;15.80;66.00
54614;DHT22;40514;52.758;6.360;2022-09-03T05:46:42;15.80;67.50
54614;DHT22;40514;52.758;6.360;2022-09-03T05:49:07;15.90;65.90
54614;DHT22;40514;52.758;6.360;2022-09-03T05:51:34;15.90;66.80
54614;DHT22;40514;52.758;6.360;2022-09-03T05:54:00;15.90;67.00
54614;DHT22;40514;52.758;6.360;2022-09-03T05:56:27;15.90;67.40
54614;DHT22;40514;52.758;6.360;2022-09-03T05:58:55;16.00;67.40
54614;DHT22;40514;52.758;6.360;2022-09-03T06:01:21;16.00;67.10
54614;DHT22;40514;52.758;6.360;2022-09-03T06:03:52;16.00;67.20
54614;DHT22;40514;52.758;6.360;2022-09-03T06:06:19;16.10;67.10
54614;DHT22;40514;52.758;6.360;2022-09-03T06:08:47;16.00;67.20
54614;DHT22;40514;52.758;6.360;2022-09-03T06:11:13;16.00;67.00
54614;DHT22;40514;52.758;6.360;2022-09-03T06:13:39;16.00;67.10
54614;DHT22;40514;52.758;6.360;2022-09-03T06:16:05;16.10;68.20
54614;DHT22;40514;52.758;6.360;2022-09-03T06:18:31;16.20;68.10
54614;DHT22;40514;52.758;6.360;2022-09-03T06:20:58;16.10;67.20
54614;DHT22;40514;52.758;6.360;2022-09-03T06:23:23;16.20;67.80
54614;DHT22;40514;52.758;6.360;2022-09-03T06:26:05;16.20;68.40
54614;DHT22;40514;52.758;6.360;2022-09-03T06:28:32;16.20;68.40
54614;DHT22;40514;52.758;6.360;2022-09-03T06:30:59;16.20;68.20
54614;DHT22;40514;52.758;6.360;2022-09-03T06:33:27;16.30;68.80
54614;DHT22;40514;52.758;6.360;2022-09-03T06:35:55;16.30;67.30
54614;DHT22;40514;52.758;6.360;2022-09-03T06:38:24;16.40;68.20
54614;DHT22;40514;52.758;6.360;2022-09-03T06:40:51;16.40;67.70
54614;DHT22;40514;52.758;6.360;2022-09-03T06:43:16;16.40;69.00
54614;DHT22;40514;52.758;6.360;2022-09-03T06:45:42;16.50;68.30
54614;DHT22;40514;52.758;6.360;2022-09-03T06:48:07;16.60;68.30
54614;DHT22;40514;52.758;6.360;2022-09-03T06:50:33;16.80;68.00
54614;DHT22;40514;52.758;6.360;2022-09-03T06:52:58;16.80;68.10
54614;DHT22;40514;52.758;6.360;2022-09-03T06:55:24;16.90;68.20
54614;DHT22;40514;52.758;6.360;2022-09-03T06:57:49;17.00;67.50
54614;DHT22;40514;52.758;6.360;2022-09-03T07:00:20;17.10;68.20
54614;DHT22;40514;52.758;6.360;2022-09-03T07:02:46;17.20;68.00
54614;DHT22;40514;52.758;6.360;2022-09-03T07:05:13;17.30;67.60
54614;DHT22;40514;52.758;6.360;2022-09-03T07:07:38;17.40;67.40
54614;DHT22;40514;52.758;6.360;2022-09-03T07:10:04;17.50;67.00
54614;DHT22;40514;52.758;6.360;2022-09-03T07:12:30;17.60;66.30
54614;DHT22;40514;52.758;6.360;2022-09-03T07:15:01;18.00;66.80
54614;DHT22;40514;52.758;6.360;2022-09-03T07:17:27;17.80;66.00
54614;DHT22;40514;52.758;6.360;2022-09-03T07:19:52;17.90;66.10
54614;DHT22;40514;52.758;6.360;2022-09-03T07:22:18;17.90;66.00
54614;DHT22;40514;52.758;6.360;2022-09-03T07:24:43;18.00;66.10
54614;DHT22;40514;52.758;6.360;2022-09-03T07:27:11;18.10;65.60
54614;DHT22;40514;52.758;6.360;2022-09-03T07:29:37;18.20;66.30
54614;DHT22;40514;52.758;6.360;2022-09-03T07:32:02;18.30;65.30
54614;DHT22;40514;52.758;6.360;2022-09-03T07:34:28;18.50;65.60
54614;DHT22;40514;52.758;6.360;2022-09-03T07:36:54;18.40;65.10
54614;DHT22;40514;52.758;6.360;2022-09-03T07:39:20;18.50;65.00
54614;DHT22;40514;52.758;6.360;2022-09-03T07:41:57;18.60;64.60
54614;DHT22;40514;52.758;6.360;2022-09-03T07:44:23;18.70;64.30
54614;DHT22;40514;52.758;6.360;2022-09-03T07:46:49;18.80;64.40
54614;DHT22;40514;52.758;6.360;2022-09-03T07:49:14;18.90;63.70
54614;DHT22;40514;52.758;6.360;2022-09-03T07:51:41;18.90;63.80
54614;DHT22;40514;52.758;6.360;2022-09-03T07:54:07;19.00;64.00
54614;DHT22;40514;52.758;6.360;2022-09-03T07:56:35;19.10;63.90
54614;DHT22;40514;52.758;6.360;2022-09-03T07:59:03;19.30;63.50
54614;DHT22;40514;52.758;6.360;2022-09-03T08:01:30;19.40;64.20
54614;DHT22;40514;52.758;6.360;2022-09-03T08:03:58;19.50;63.40
54614;DHT22;40514;52.758;6.360;2022-09-03T08:06:25;19.70;62.90
54614;DHT22;40514;52.758;6.360;2022-09-03T08:08:54;19.80;62.50
54614;DHT22;40514;52.758;6.360;2022-09-03T08:11:21;19.90;62.50
54614;DHT22;40514;52.758;6.360;2022-09-03T08:13:47;20.00;62.40
54614;DHT22;40514;52.758;6.360;2022-09-03T08:16:16;20.10;61.20
54614;DHT22;40514;52.758;6.360;2022-09-03T08:18:45;20.20;61.60
54614;DHT22;40514;52.758;6.360;2022-09-03T08:21:15;20.30;61.00
54614;DHT22;40514;52.758;6.360;2022-09-03T08:23:45;20.50;61.10
54614;DHT22;40514;52.758;6.360;2022-09-03T08:26:11;20.70;61.20
54614;DHT22;40514;52.758;6.360;2022-09-03T08:28:37;20.80;61.40
54614;DHT22;40514;52.758;6.360;2022-09-03T08:31:06;21.20;61.00
54614;DHT22;40514;52.758;6.360;2022-09-03T08:33:32;21.10;59.80
54614;DHT22;40514;52.758;6.360;2022-09-03T08:36:04;21.30;59.90
54614;DHT22;40514;52.758;6.360;2022-09-03T08:38:30;21.40;60.30
54614;DHT22;40514;52.758;6.360;2022-09-03T08:43:51;21.90;59.60
54614;DHT22;40514;52.758;6.360;2022-09-03T08:46:19;22.20;58.80
54614;DHT22;40514;52.758;6.360;2022-09-03T08:48:46;22.40;58.60
54614;DHT22;40514;52.758;6.360;2022-09-03T08:51:11;22.70;58.40
54614;DHT22;40514;52.758;6.360;2022-09-03T08:53:47;22.90;57.00
54614;DHT22;40514;52.758;6.360;2022-09-03T08:56:23;23.00;56.60
54614;DHT22;40514;52.758;6.360;2022-09-03T08:58:49;23.30;56.20
54614;DHT22;40514;52.758;6.360;2022-09-03T09:01:18;23.50;55.70
54614;DHT22;40514;52.758;6.360;2022-09-03T09:06:28;24.20;55.10
54614;DHT22;40514;52.758;6.360;2022-09-03T09:14:42;25.50;52.70
54614;DHT22;40514;52.758;6.360;2022-09-03T09:17:17;26.30;51.20
54614;DHT22;40514;52.758;6.360;2022-09-03T09:22:11;27.50;49.00
54614;DHT22;40514;52.758;6.360;2022-09-03T09:24:42;27.90;47.70
54614;DHT22;40514;52.758;6.360;2022-09-03T09:27:09;28.30;48.10
54614;DHT22;40514;52.758;6.360;2022-09-03T09:29:37;28.60;47.00
54614;DHT22;40514;52.758;6.360;2022-09-03T09:32:03;28.90;46.70
54614;DHT22;40514;52.758;6.360;2022-09-03T09:34:37;29.50;46.90
54614;DHT22;40514;52.758;6.360;2022-09-03T09:37:10;30.00;46.10
54614;DHT22;40514;52.758;6.360;2022-09-03T09:39:37;30.40;44.30
54614;DHT22;40514;52.758;6.360;2022-09-03T09:42:07;30.80;44.50
54614;DHT22;40514;52.758;6.360;2022-09-03T09:44:34;31.10;43.10
54614;DHT22;40514;52.758;6.360;2022-09-03T09:47:04;31.10;43.30
54614;DHT22;40514;52.758;6.360;2022-09-03T09:49:32;31.10;42.60
54614;DHT22;40514;52.758;6.360;2022-09-03T09:52:00;31.50;43.00
54614;DHT22;40514;52.758;6.360;2022-09-03T09:54:26;32.10;42.20
54614;DHT22;40514;52.758;6.360;2022-09-03T09:56:59;32.50;41.60
54614;DHT22;40514;52.758;6.360;2022-09-03T09:59:25;32.50;40.80
54614;DHT22;40514;52.758;6.360;2022-09-03T10:01:50;32.70;42.60
54614;DHT22;40514;52.758;6.360;2022-09-03T10:04:28;32.70;40.50
54614;DHT22;40514;52.758;6.360;2022-09-03T10:06:55;33.10;41.20
54614;DHT22;40514;52.758;6.360;2022-09-03T10:09:25;33.50;40.60
54614;DHT22;40514;52.758;6.360;2022-09-03T10:14:33;34.30;40.20
54614;DHT22;40514;52.758;6.360;2022-09-03T10:17:18;34.60;39.80
54614;DHT22;40514;52.758;6.360;2022-09-03T10:22:39;34.70;38.30
54614;DHT22;40514;52.758;6.360;2022-09-03T10:25:10;34.80;39.00
54614;DHT22;40514;52.758;6.360;2022-09-03T10:27:38;34.60;37.40
54614;DHT22;40514;52.758;6.360;2022-09-03T10:30:04;34.30;38.00
54614;DHT22;40514;52.758;6.360;2022-09-03T10:32:33;34.50;37.80
54614;DHT22;40514;52.758;6.360;2022-09-03T10:35:05;34.70;37.70
54614;DHT22;40514;52.758;6.360;2022-09-03T10:37:36;34.90;38.80
54614;DHT22;40514;52.758;6.360;2022-09-03T10:42:45;34.90;38.10
54614;DHT22;40514;52.758;6.360;2022-09-03T10:45:31;35.30;37.80
54614;DHT22;40514;52.758;6.360;2022-09-03T10:48:05;35.50;37.20
54614;DHT22;40514;52.758;6.360;2022-09-03T10:55:55;36.30;37.50
54614;DHT22;40514;52.758;6.360;2022-09-03T11:00:51;36.60;36.40
54614;DHT22;40514;52.758;6.360;2022-09-03T11:08:45;37.20;34.90
54614;DHT22;40514;52.758;6.360;2022-09-03T11:11:16;36.90;34.50
54614;DHT22;40514;52.758;6.360;2022-09-03T11:13:46;36.70;35.10
54614;DHT22;40514;52.758;6.360;2022-09-03T11:16:20;36.50;36.10
54614;DHT22;40514;52.758;6.360;2022-09-03T11:18:48;36.50;34.40
54614;DHT22;40514;52.758;6.360;2022-09-03T11:21:17;37.00;35.10
54614;DHT22;40514;52.758;6.360;2022-09-03T11:23:44;37.20;34.30
54614;DHT22;40514;52.758;6.360;2022-09-03T11:26:12;37.00;34.50
54614;DHT22;40514;52.758;6.360;2022-09-03T11:31:22;37.70;35.50
54614;DHT22;40514;52.758;6.360;2022-09-03T11:33:50;37.60;33.10
54614;DHT22;40514;52.758;6.360;2022-09-03T11:36:37;37.80;33.30
54614;DHT22;40514;52.758;6.360;2022-09-03T11:39:13;37.90;33.70
54614;DHT22;40514;52.758;6.360;2022-09-03T11:41:42;37.70;33.50
54614;DHT22;40514;52.758;6.360;2022-09-03T11:44:17;37.50;32.80
54614;DHT22;40514;52.758;6.360;2022-09-03T11:46:53;37.80;33.50
54614;DHT22;40514;52.758;6.360;2022-09-03T11:49:29;38.20;33.70
54614;DHT22;40514;52.758;6.360;2022-09-03T11:51:59;38.80;33.80
54614;DHT22;40514;52.758;6.360;2022-09-03T11:54:25;38.80;32.50
54614;DHT22;40514;52.758;6.360;2022-09-03T11:59:52;38.70;32.60
54614;DHT22;40514;52.758;6.360;2022-09-03T12:02:23;38.30;32.10
54614;DHT22;40514;52.758;6.360;2022-09-03T12:07:34;38.80;32.80
54614;DHT22;40514;52.758;6.360;2022-09-03T12:10:09;38.90;32.20
54614;DHT22;40514;52.758;6.360;2022-09-03T12:12:57;39.20;32.70
54614;DHT22;40514;52.758;6.360;2022-09-03T12:17:56;39.50;31.70
54614;DHT22;40514;52.758;6.360;2022-09-03T12:20:42;39.50;31.30
54614;DHT22;40514;52.758;6.360;2022-09-03T12:23:11;39.30;31.30
54614;DHT22;40514;52.758;6.360;2022-09-03T12:25:42;39.30;31.80
54614;DHT22;40514;52.758;6.360;2022-09-03T12:28:12;39.00;31.50
54614;DHT22;40514;52.758;6.360;2022-09-03T12:30:40;39.40;32.10
54614;DHT22;40514;52.758;6.360;2022-09-03T12:33:06;39.80;31.70
54614;DHT22;40514;52.758;6.360;2022-09-03T12:35:32;40.20;31.60
54614;DHT22;40514;52.758;6.360;2022-09-03T12:37:58;40.50;31.20
54614;DHT22;40514;52.758;6.360;2022-09-03T12:40:27;40.40;31.20
54614;DHT22;40514;52.758;6.360;2022-09-03T12:42:53;40.70;31.20
54614;DHT22;40514;52.758;6.360;2022-09-03T12:45:20;41.10;31.20
54614;DHT22;40514;52.758;6.360;2022-09-03T12:47:46;41.40;31.20
54614;DHT22;40514;52.758;6.360;2022-09-03T12:50:13;41.50;31.70
54614;DHT22;40514;52.758;6.360;2022-09-03T12:52:48;41.80;31.40
54614;DHT22;40514;52.758;6.360;2022-09-03T13:00:31;41.50;30.60
54614;DHT22;40514;52.758;6.360;2022-09-03T13:03:02;41.30;30.30
54614;DHT22;40514;52.758;6.360;2022-09-03T13:05:31;41.10;30.50
54614;DHT22;40514;52.758;6.360;2022-09-03T13:07:58;41.40;31.50
54614;DHT22;40514;52.758;6.360;2022-09-03T13:10:28;41.30;30.90
54614;DHT22;40514;52.758;6.360;2022-09-03T13:12:58;41.40;30.40
54614;DHT22;40514;52.758;6.360;2022-09-03T13:15:24;41.30;30.40
54614;DHT22;40514;52.758;6.360;2022-09-03T13:20:20;41.00;30.70
54614;DHT22;40514;52.758;6.360;2022-09-03T13:22:57;40.40;31.00
54614;DHT22;40514;52.758;6.360;2022-09-03T13:30:20;37.30;31.90
54614;DHT22;40514;52.758;6.360;2022-09-03T13:32:50;36.50;32.50
54614;DHT22;40514;52.758;6.360;2022-09-03T13:37:48;35.40;33.70
54614;DHT22;40514;52.758;6.360;2022-09-03T13:45:38;34.40;34.20
54614;DHT22;40514;52.758;6.360;2022-09-03T13:56:15;33.00;35.80
54614;DHT22;40514;52.758;6.360;2022-09-03T13:58:51;32.60;35.60
54614;DHT22;40514;52.758;6.360;2022-09-03T14:01:40;32.40;36.30
54614;DHT22;40514;52.758;6.360;2022-09-03T14:04:16;32.40;36.50
54614;DHT22;40514;52.758;6.360;2022-09-03T14:06:48;32.20;36.70
54614;DHT22;40514;52.758;6.360;2022-09-03T14:11:52;31.70;36.60
54614;DHT22;40514;52.758;6.360;2022-09-03T14:22:22;31.10;37.50
54614;DHT22;40514;52.758;6.360;2022-09-03T14:24:51;30.90;37.70
54614;DHT22;40514;52.758;6.360;2022-09-03T14:27:25;31.00;38.00
54614;DHT22;40514;52.758;6.360;2022-09-03T14:29:52;30.90;38.30
54614;DHT22;40514;52.758;6.360;2022-09-03T14:37:42;30.50;38.10
54614;DHT22;40514;52.758;6.360;2022-09-03T14:42:42;30.30;38.60
54614;DHT22;40514;52.758;6.360;2022-09-03T14:55:56;30.20;39.30
54614;DHT22;40514;52.758;6.360;2022-09-03T14:58:38;30.20;39.50
54614;DHT22;40514;52.758;6.360;2022-09-03T15:01:10;30.10;39.20
54614;DHT22;40514;52.758;6.360;2022-09-03T15:06:05;30.00;39.60
54614;DHT22;40514;52.758;6.360;2022-09-03T15:10:58;29.80;39.40
54614;DHT22;40514;52.758;6.360;2022-09-03T15:16:07;29.80;39.40
54614;DHT22;40514;52.758;6.360;2022-09-03T15:31:15;29.90;39.50
54614;DHT22;40514;52.758;6.360;2022-09-03T15:33:49;29.90;39.90
54614;DHT22;40514;52.758;6.360;2022-09-03T15:44:06;29.80;39.30
54614;DHT22;40514;52.758;6.360;2022-09-03T15:46:45;29.80;39.20
54614;DHT22;40514;52.758;6.360;2022-09-03T15:49:22;29.90;39.80
54614;DHT22;40514;52.758;6.360;2022-09-03T15:52:38;29.70;39.80
54614;DHT22;40514;52.758;6.360;2022-09-03T15:54:41;29.60;39.90
54614;DHT22;40514;52.758;6.360;2022-09-03T16:00:02;29.40;39.80
54614;DHT22;40514;52.758;6.360;2022-09-03T16:03:12;29.40;40.00
54614;DHT22;40514;52.758;6.360;2022-09-03T16:05:41;29.30;40.00
54614;DHT22;40514;52.758;6.360;2022-09-03T16:08:16;29.20;39.90
54614;DHT22;40514;52.758;6.360;2022-09-03T16:10:49;29.20;40.00
54614;DHT22;40514;52.758;6.360;2022-09-03T16:15:58;29.20;40.30
54614;DHT22;40514;52.758;6.360;2022-09-03T16:18:32;29.20;40.90
54614;DHT22;40514;52.758;6.360;2022-09-03T16:21:01;29.20;40.90
54614;DHT22;40514;52.758;6.360;2022-09-03T16:25:56;29.10;40.50
54614;DHT22;40514;52.758;6.360;2022-09-03T16:28:31;29.00;40.70
54614;DHT22;40514;52.758;6.360;2022-09-03T16:31:03;28.90;40.70
54614;DHT22;40514;52.758;6.360;2022-09-03T16:39:02;28.70;41.70
54614;DHT22;40514;52.758;6.360;2022-09-03T16:41:38;28.60;41.40
54614;DHT22;40514;52.758;6.360;2022-09-03T16:49:44;28.40;41.50
54614;DHT22;40514;52.758;6.360;2022-09-03T16:54:54;28.20;42.00
54614;DHT22;40514;52.758;6.360;2022-09-03T17:10:20;27.90;42.50
54614;DHT22;40514;52.758;6.360;2022-09-03T17:23:06;27.70;43.20
54614;DHT22;40514;52.758;6.360;2022-09-03T17:25:36;27.60;43.40
54614;DHT22;40514;52.758;6.360;2022-09-03T17:28:05;27.50;43.20
54614;DHT22;40514;52.758;6.360;2022-09-03T17:36:10;27.40;43.70
54614;DHT22;40514;52.758;6.360;2022-09-03T17:44:00;27.20;44.40
54614;DHT22;40514;52.758;6.360;2022-09-03T17:46:34;27.20;44.10
54614;DHT22;40514;52.758;6.360;2022-09-03T17:49:06;27.10;44.10
54614;DHT22;40514;52.758;6.360;2022-09-03T17:54:06;27.10;44.70
54614;DHT22;40514;52.758;6.360;2022-09-03T17:56:41;27.00;44.40
54614;DHT22;40514;52.758;6.360;2022-09-03T17:59:22;26.90;44.70
54614;DHT22;40514;52.758;6.360;2022-09-03T18:01:53;26.80;44.70
54614;DHT22;40514;52.758;6.360;2022-09-03T18:04:28;26.70;44.90
54614;DHT22;40514;52.758;6.360;2022-09-03T18:06:57;26.70;45.10
54614;DHT22;40514;52.758;6.360;2022-09-03T18:09:39;26.60;45.20
54614;DHT22;40514;52.758;6.360;2022-09-03T18:12:11;26.60;45.20
54614;DHT22;40514;52.758;6.360;2022-09-03T18:14:51;26.50;45.50
54614;DHT22;40514;52.758;6.360;2022-09-03T18:17:26;26.40;45.50
54614;DHT22;40514;52.758;6.360;2022-09-03T18:19:59;26.30;46.00
54614;DHT22;40514;52.758;6.360;2022-09-03T18:22:59;26.30;45.80
54614;DHT22;40514;52.758;6.360;2022-09-03T18:25:44;26.10;46.00
54614;DHT22;40514;52.758;6.360;2022-09-03T18:31:33;25.90;46.50
54614;DHT22;40514;52.758;6.360;2022-09-03T18:34:18;25.80;46.70
54614;DHT22;40514;52.758;6.360;2022-09-03T18:37:03;25.70;46.60
54614;DHT22;40514;52.758;6.360;2022-09-03T18:39:47;25.70;47.00
54614;DHT22;40514;52.758;6.360;2022-09-03T18:48:14;25.40;47.40
54614;DHT22;40514;52.758;6.360;2022-09-03T18:51:09;25.30;47.40
54614;DHT22;40514;52.758;6.360;2022-09-03T18:56:42;25.10;47.40
54614;DHT22;40514;52.758;6.360;2022-09-03T18:59:50;25.10;47.80
54614;DHT22;40514;52.758;6.360;2022-09-03T19:02:48;25.10;48.00
54614;DHT22;40514;52.758;6.360;2022-09-03T19:05:46;24.90;47.90
54614;DHT22;40514;52.758;6.360;2022-09-03T19:08:36;24.90;48.20
54614;DHT22;40514;52.758;6.360;2022-09-03T19:14:13;24.80;48.40
54614;DHT22;40514;52.758;6.360;2022-09-03T19:17:01;24.80;48.70
54614;DHT22;40514;52.758;6.360;2022-09-03T19:20:05;24.70;48.70
54614;DHT22;40514;52.758;6.360;2022-09-03T19:22:53;24.70;48.80
54614;DHT22;40514;52.758;6.360;2022-09-03T19:25:37;24.60;49.10
54614;DHT22;40514;52.758;6.360;2022-09-03T19:28:22;24.50;49.10
54614;DHT22;40514;52.758;6.360;2022-09-03T19:34:02;24.40;49.20
54614;DHT22;40514;52.758;6.360;2022-09-03T19:37:05;24.30;49.90
54614;DHT22;40514;52.758;6.360;2022-09-03T19:39:56;24.20;49.70
54614;DHT22;40514;52.758;6.360;2022-09-03T19:43:11;24.10;49.60
54614;DHT22;40514;52.758;6.360;2022-09-03T19:48:56;23.90;50.40
54614;DHT22;40514;52.758;6.360;2022-09-03T19:51:44;23.90;50.60
54614;DHT22;40514;52.758;6.360;2022-09-03T19:54:32;23.80;50.40
54614;DHT22;40514;52.758;6.360;2022-09-03T19:57:17;23.70;50.90
54614;DHT22;40514;52.758;6.360;2022-09-03T20:00:03;23.60;50.40
54614;DHT22;40514;52.758;6.360;2022-09-03T20:02:48;23.60;51.00
54614;DHT22;40514;52.758;6.360;2022-09-03T20:05:32;23.50;50.90
54614;DHT22;40514;52.758;6.360;2022-09-03T20:08:17;23.50;51.20